Time;durP1;ratioP1;P1;durP2;ratioP2;P2;SDS_P1;SDS_P2;PMS_P1;PMS_P2;Temp;Humidity;BMP_temperature;BMP_pressure;BME280_temperature;BME280_humidity;BME280_pressure;Samples;Min_cycle;Max_cycle;Signal;HPM_P1;HPM_P2
2022/04/19 05:00:39;;;;;;;3.13;2.70;;;7.20;97.20;;;;;;1688336;29;20188;-74
2022/04/19 05:01:30;;;;;;;3.85;2.88;;;7.20;97.20;;;;;;1688221;29;20247;-74
2022/04/19 05:02:23;;;;;;;3.97;2.97;;;7.20;97.20;;;;;;1688326;29;20211;-74
2022/04/19 05:03:14;;;;;;;3.20;2.60;;;7.30;97.20;;;;;;1686056;29;20208;-75
2022/04/19 05:04:05;;;;;;;4.40;2.90;;;7.30;97.20;;;;;;1681808;29;20208;-74
2022/04/19 05:04:56;;;;;;;3.20;2.85;;;7.30;97.20;;;;;;1681718;29;20577;-74
2022/04/19 05:05:48;;;;;;;3.30;2.92;;;7.40;97.20;;;;;;1681729;29;20218;-74
2022/04/19 05:06:40;;;;;;;3.50;3.20;;;7.40;97.20;;;;;;1681841;29;20262;-74
2022/04/19 05:07:31;;;;;;;3.85;2.72;;;7.40;97.20;;;;;;1681743;29;20205;-74
2022/04/19 05:08:22;;;;;;;3.33;3.03;;;7.40;97.20;;;;;;1681470;29;20213;-73
2022/04/19 05:09:14;;;;;;;3.30;3.00;;;7.50;97.20;;;;;;1681647;29;20197;-73
2022/04/19 05:10:06;;;;;;;5.05;3.50;;;7.50;97.20;;;;;;1681815;29;20201;-74
2022/04/19 05:10:58;;;;;;;3.75;2.97;;;7.50;97.20;;;;;;1681816;29;20208;-73
2022/04/19 05:11:50;;;;;;;3.20;2.90;;;7.50;97.20;;;;;;1681722;29;20236;-73
2022/04/19 05:12:42;;;;;;;3.08;2.85;;;7.60;97.20;;;;;;1681772;29;20216;-74
2022/04/19 05:13:33;;;;;;;4.75;2.83;;;7.60;97.20;;;;;;1685000;29;20317;-73
2022/04/19 05:14:25;;;;;;;4.23;3.43;;;7.60;97.20;;;;;;1687858;29;20205;-74
2022/04/19 05:15:16;;;;;;;3.85;2.70;;;7.70;97.20;;;;;;1687538;29;20204;-74
2022/04/19 05:16:09;;;;;;;4.55;2.90;;;7.70;97.20;;;;;;1688003;29;20224;-74
2022/04/19 05:17:00;;;;;;;3.85;3.30;;;7.70;97.20;;;;;;1687715;29;20215;-74
2022/04/19 05:17:51;;;;;;;3.10;2.90;;;7.70;97.20;;;;;;1684647;29;20287;-73
2022/04/19 05:18:42;;;;;;;4.93;3.30;;;7.70;97.20;;;;;;1687837;29;20208;-74
2022/04/19 05:19:34;;;;;;;3.10;2.80;;;7.70;97.20;;;;;;1687953;29;20292;-74
2022/04/19 05:20:24;;;;;;;3.90;3.50;;;7.70;97.20;;;;;;1688090;29;20215;-73
2022/04/19 05:21:16;;;;;;;4.10;2.60;;;7.70;97.20;;;;;;1688100;29;20207;-74
2022/04/19 05:22:07;;;;;;;4.63;3.60;;;7.70;97.20;;;;;;1687820;29;20208;-74
2022/04/19 05:22:59;;;;;;;5.20;3.40;;;7.80;97.20;;;;;;1687731;29;20192;-74
2022/04/19 05:23:49;;;;;;;3.97;3.58;;;7.80;97.20;;;;;;1687678;29;21027;-74
2022/04/19 05:24:41;;;;;;;4.27;3.37;;;7.80;97.20;;;;;;1687980;29;20616;-75
2022/04/19 05:25:32;;;;;;;4.30;3.40;;;7.80;97.20;;;;;;1687982;29;20677;-76
2022/04/19 05:26:27;;;;;;;3.40;3.10;;;7.90;97.20;;;;;;1688171;29;20656;-76
2022/04/19 05:27:18;;;;;;;4.22;2.90;;;7.90;97.20;;;;;;1688060;29;20244;-76
2022/04/19 05:28:09;;;;;;;3.50;3.20;;;7.90;97.20;;;;;;1687846;29;20208;-76
2022/04/19 05:29:00;;;;;;;3.28;2.80;;;8.00;97.20;;;;;;1688103;29;20255;-76
2022/04/19 05:29:52;;;;;;;5.05;3.40;;;8.00;97.20;;;;;;1687977;29;20230;-76
2022/04/19 05:30:43;;;;;;;3.45;3.00;;;8.00;97.20;;;;;;1688129;29;20209;-75
2022/04/19 05:31:37;;;;;;;3.00;2.70;;;8.00;97.20;;;;;;1688063;29;20213;-76
2022/04/19 05:32:28;;;;;;;4.60;3.40;;;8.00;97.20;;;;;;1688048;29;20235;-76
2022/04/19 05:33:20;;;;;;;5.35;3.53;;;8.00;97.20;;;;;;1688121;29;20196;-76
2022/04/19 05:34:10;;;;;;;3.88;3.00;;;8.10;97.20;;;;;;1689915;29;20208;-75
2022/04/19 05:35:02;;;;;;;3.50;2.90;;;8.10;97.20;;;;;;1681851;29;20319;-74
2022/04/19 05:35:55;;;;;;;5.10;3.90;;;8.20;97.20;;;;;;1687424;29;20598;-75
2022/04/19 05:36:47;;;;;;;3.50;3.20;;;8.20;97.20;;;;;;1694441;29;20207;-75
2022/04/19 05:37:37;;;;;;;3.63;3.00;;;8.20;97.20;;;;;;1694463;29;20579;-75
2022/04/19 05:38:29;;;;;;;4.10;3.40;;;8.20;97.20;;;;;;1694043;29;20239;-75
2022/04/19 05:39:20;;;;;;;3.30;3.00;;;8.30;97.20;;;;;;1694472;29;20219;-74
2022/04/19 05:40:12;;;;;;;3.90;3.50;;;8.30;97.20;;;;;;1689617;29;20203;-75
2022/04/19 05:41:02;;;;;;;3.70;3.38;;;8.40;97.20;;;;;;1685485;29;20615;-76
2022/04/19 05:41:54;;;;;;;3.30;3.00;;;8.40;97.20;;;;;;1691302;29;21633;-76
2022/04/19 05:42:45;;;;;;;4.00;3.60;;;8.40;97.20;;;;;;1687988;29;20216;-76
2022/04/19 05:43:36;;;;;;;3.40;3.10;;;8.50;97.20;;;;;;1687979;29;20283;-75
2022/04/19 05:44:27;;;;;;;3.50;3.20;;;8.60;97.20;;;;;;1687875;29;20200;-75
2022/04/19 05:45:19;;;;;;;6.00;3.10;;;8.60;97.20;;;;;;1687881;29;20224;-75
2022/04/19 05:46:10;;;;;;;5.88;3.60;;;8.70;97.20;;;;;;1687904;29;20472;-75
2022/04/19 05:47:04;;;;;;;3.53;3.23;;;8.70;97.20;;;;;;1687374;29;20208;-76
2022/04/19 05:47:55;;;;;;;6.32;3.63;;;8.80;97.20;;;;;;1687909;29;20204;-76
2022/04/19 05:48:47;;;;;;;3.77;3.37;;;8.80;97.20;;;;;;1687597;29;20235;-74
2022/04/19 05:49:38;;;;;;;4.93;3.47;;;8.90;97.20;;;;;;1687898;29;20213;-75
2022/04/19 05:50:29;;;;;;;3.87;3.13;;;8.90;97.20;;;;;;1687546;29;20759;-75
2022/04/19 05:51:20;;;;;;;4.20;3.65;;;8.90;97.20;;;;;;1687744;29;20228;-75
2022/04/19 05:52:13;;;;;;;7.10;3.77;;;9.00;97.20;;;;;;1687932;29;20200;-76
2022/04/19 05:53:04;;;;;;;3.20;2.90;;;9.00;97.20;;;;;;1687902;29;20220;-76
2022/04/19 05:53:55;;;;;;;5.18;4.32;;;9.00;97.20;;;;;;1687823;29;20663;-76
2022/04/19 05:54:46;;;;;;;3.67;3.38;;;9.10;97.20;;;;;;1687919;29;20213;-76
2022/04/19 05:55:38;;;;;;;3.30;3.00;;;9.10;97.20;;;;;;1687769;29;20220;-76
2022/04/19 05:56:30;;;;;;;3.42;3.13;;;9.10;97.20;;;;;;1687780;29;20225;-76
2022/04/19 05:57:22;;;;;;;5.28;3.40;;;9.10;97.20;;;;;;1687914;29;20200;-76
2022/04/19 05:58:13;;;;;;;3.35;2.85;;;9.20;97.20;;;;;;1687563;29;20215;-76
2022/04/19 05:59:05;;;;;;;3.75;3.15;;;9.20;97.20;;;;;;1687886;29;20672;-75
2022/04/19 05:59:56;;;;;;;3.92;3.63;;;9.20;97.20;;;;;;1687674;29;20211;-75
2022/04/19 06:00:47;;;;;;;3.73;3.40;;;9.20;97.20;;;;;;1687532;29;20244;-76
2022/04/19 06:05:08;;;;;;;7.38;4.18;;;9.40;97.20;;;;;;1687855;29;20235;-76
2022/04/19 06:06:00;;;;;;;5.20;4.10;;;9.40;97.20;;;;;;1687824;29;20336;-75
2022/04/19 06:06:50;;;;;;;3.83;3.08;;;9.50;97.20;;;;;;1687800;29;20216;-76
2022/04/19 06:07:46;;;;;;;4.20;3.90;;;9.50;97.20;;;;;;1687866;29;20288;-76
2022/04/19 06:08:37;;;;;;;5.30;3.63;;;9.50;97.20;;;;;;1687484;29;20220;-76
2022/04/19 06:09:28;;;;;;;4.33;3.93;;;9.50;97.20;;;;;;1687671;29;20719;-76
2022/04/19 06:10:19;;;;;;;4.35;3.95;;;9.60;97.20;;;;;;1687704;29;20248;-76
2022/04/19 06:11:12;;;;;;;4.43;3.67;;;9.60;97.20;;;;;;1687819;29;20224;-74
2022/04/19 06:12:03;;;;;;;4.75;4.25;;;9.60;97.20;;;;;;1687823;29;20444;-75
2022/04/19 06:12:55;;;;;;;4.35;3.88;;;9.70;97.20;;;;;;1687758;29;20231;-76
2022/04/19 06:13:46;;;;;;;3.85;3.53;;;9.70;97.20;;;;;;1687816;29;20208;-76
2022/04/19 06:14:38;;;;;;;4.10;3.70;;;9.70;97.20;;;;;;1687857;29;20686;-76
2022/04/19 06:15:29;;;;;;;4.28;3.80;;;9.70;97.20;;;;;;1687610;29;20302;-76
2022/04/19 06:16:20;;;;;;;4.93;4.30;;;9.80;97.20;;;;;;1687739;29;20240;-76
2022/04/19 06:17:13;;;;;;;3.83;3.53;;;9.80;97.20;;;;;;1687694;29;20946;-76
2022/04/19 06:18:07;;;;;;;5.43;3.55;;;9.80;97.20;;;;;;1687388;29;20248;-76
2022/04/19 06:18:57;;;;;;;4.40;3.58;;;9.80;97.20;;;;;;1687866;29;20212;-76
2022/04/19 06:19:49;;;;;;;3.60;3.30;;;9.80;97.20;;;;;;1687578;29;20211;-76
2022/04/19 06:20:40;;;;;;;3.47;3.17;;;9.90;97.20;;;;;;1687293;29;20205;-75
2022/04/19 06:21:32;;;;;;;4.38;3.38;;;9.90;97.20;;;;;;1687656;29;20296;-75
2022/04/19 06:22:23;;;;;;;3.97;3.63;;;9.90;97.20;;;;;;1687644;29;20562;-76
2022/04/19 06:23:14;;;;;;;3.97;3.63;;;9.90;97.20;;;;;;1687725;29;20227;-76
2022/04/19 06:24:05;;;;;;;3.95;3.65;;;10.00;97.20;;;;;;1687804;29;20240;-76
2022/04/19 06:24:57;;;;;;;4.87;3.97;;;10.00;97.20;;;;;;1687686;29;20206;-76
2022/04/19 06:25:48;;;;;;;4.05;3.75;;;10.00;97.20;;;;;;1687808;29;20208;-76
2022/04/19 06:26:40;;;;;;;6.00;3.90;;;10.10;97.20;;;;;;1687833;29;20291;-76
2022/04/19 06:27:31;;;;;;;4.10;3.70;;;10.10;97.20;;;;;;1687757;29;20668;-76
2022/04/19 06:28:22;;;;;;;3.97;3.57;;;10.20;97.20;;;;;;1687579;29;20680;-76
2022/04/19 06:29:13;;;;;;;4.25;3.80;;;10.20;97.20;;;;;;1687696;29;20967;-76
2022/04/19 06:30:06;;;;;;;5.13;3.93;;;10.30;97.20;;;;;;1687602;29;20682;-76
2022/04/19 06:30:57;;;;;;;3.83;3.53;;;10.30;97.20;;;;;;1681388;29;20267;-76
2022/04/19 06:31:48;;;;;;;5.20;4.03;;;10.40;97.20;;;;;;1681156;29;20213;-76
2022/04/19 06:32:40;;;;;;;3.80;3.40;;;10.40;97.20;;;;;;1681180;29;20264;-75
2022/04/19 06:33:33;;;;;;;4.25;3.50;;;10.40;97.20;;;;;;1681188;29;20721;-75
2022/04/19 06:34:24;;;;;;;4.20;3.70;;;10.50;97.20;;;;;;1681285;29;20205;-75
2022/04/19 06:35:16;;;;;;;4.10;3.70;;;10.50;97.20;;;;;;1681142;29;20240;-76
2022/04/19 06:36:06;;;;;;;3.42;3.13;;;10.50;97.20;;;;;;1684529;29;20627;-76
2022/04/19 06:36:58;;;;;;;3.90;3.40;;;10.60;97.20;;;;;;1687702;29;20580;-74
2022/04/19 06:37:49;;;;;;;5.35;3.88;;;10.60;97.20;;;;;;1687605;29;20847;-76
2022/04/19 06:38:41;;;;;;;3.73;3.40;;;10.70;97.20;;;;;;1687402;29;20201;-75
2022/04/19 06:39:32;;;;;;;4.00;3.55;;;10.70;97.20;;;;;;1687604;29;20703;-75
2022/04/19 06:40:23;;;;;;;3.50;3.00;;;10.70;97.20;;;;;;1687447;29;20956;-75
2022/04/19 06:41:14;;;;;;;6.43;3.67;;;10.70;97.20;;;;;;1687498;29;20529;-75
2022/04/19 06:42:06;;;;;;;4.50;3.80;;;10.80;97.20;;;;;;1687692;29;20204;-75
2022/04/19 06:42:57;;;;;;;4.32;3.83;;;10.80;97.20;;;;;;1687705;29;20480;-74
2022/04/19 06:43:49;;;;;;;4.70;3.97;;;10.90;97.20;;;;;;1687684;29;20210;-75
2022/04/19 06:44:40;;;;;;;4.78;3.90;;;10.90;97.20;;;;;;1687764;29;20209;-76
2022/04/19 06:45:31;;;;;;;4.00;3.40;;;11.00;97.20;;;;;;1687549;29;20233;-75
2022/04/19 06:46:22;;;;;;;3.92;3.50;;;11.00;97.20;;;;;;1687160;29;20574;-75
2022/04/19 06:47:14;;;;;;;4.17;3.80;;;11.10;97.20;;;;;;1687601;29;20295;-75
2022/04/19 06:48:06;;;;;;;5.65;3.97;;;11.10;97.20;;;;;;1686821;29;20239;-75
2022/04/19 06:48:58;;;;;;;3.50;3.20;;;11.10;97.20;;;;;;1687422;29;20197;-75
2022/04/19 06:49:50;;;;;;;4.97;4.47;;;11.10;97.20;;;;;;1687512;29;20208;-75
2022/04/19 06:50:41;;;;;;;4.28;3.63;;;11.20;97.20;;;;;;1692717;29;20235;-75
2022/04/19 06:51:32;;;;;;;5.00;3.72;;;11.20;97.20;;;;;;1694133;29;20207;-76
2022/04/19 06:52:24;;;;;;;3.90;3.50;;;11.20;97.20;;;;;;1693966;29;20259;-76
2022/04/19 06:53:15;;;;;;;3.90;3.50;;;11.20;97.20;;;;;;1694190;29;20799;-76
2022/04/19 06:54:07;;;;;;;3.40;3.10;;;11.20;97.20;;;;;;1693836;29;20574;-75
2022/04/19 06:54:58;;;;;;;3.83;3.53;;;11.20;97.20;;;;;;1687642;29;20208;-76
2022/04/19 06:55:50;;;;;;;3.83;3.53;;;11.20;97.20;;;;;;1687822;29;20204;-77
2022/04/19 06:56:41;;;;;;;4.93;3.83;;;11.20;97.20;;;;;;1687574;29;20641;-75
2022/04/19 06:57:39;;;;;;;4.47;3.50;;;11.20;97.20;;;;;;1687329;29;20373;-76
2022/04/19 06:58:30;;;;;;;4.00;3.60;;;11.20;97.20;;;;;;1686951;29;20809;-75
2022/04/19 06:59:22;;;;;;;4.50;4.10;;;11.20;97.20;;;;;;1687606;29;20589;-76
2022/04/19 07:00:13;;;;;;;5.55;3.30;;;11.20;97.20;;;;;;1687790;29;20677;-76
2022/04/19 07:01:05;;;;;;;5.03;3.83;;;11.20;97.20;;;;;;1687669;29;20212;-76
2022/04/19 07:01:56;;;;;;;4.78;3.55;;;11.30;97.20;;;;;;1687574;29;20210;-76
2022/04/19 07:02:48;;;;;;;4.13;3.70;;;11.30;97.20;;;;;;1687641;29;20224;-76
2022/04/19 07:03:39;;;;;;;4.50;4.10;;;11.30;97.20;;;;;;1687777;29;20204;-76
2022/04/19 07:04:32;;;;;;;4.10;3.60;;;11.30;97.20;;;;;;1687114;29;20214;-76
2022/04/19 07:05:23;;;;;;;4.30;3.90;;;11.30;97.20;;;;;;1687476;29;20256;-75
2022/04/19 07:06:14;;;;;;;5.23;3.80;;;11.40;97.20;;;;;;1687761;29;20289;-76
2022/04/19 07:07:07;;;;;;;3.83;3.53;;;11.40;97.20;;;;;;1687922;29;20212;-76
2022/04/19 07:07:59;;;;;;;4.30;3.50;;;11.40;97.20;;;;;;1687667;29;20232;-76
2022/04/19 07:08:50;;;;;;;3.60;3.30;;;11.40;97.20;;;;;;1687360;29;20215;-76
2022/04/19 07:09:41;;;;;;;4.07;3.40;;;11.50;97.20;;;;;;1687752;29;20222;-76
2022/04/19 07:10:33;;;;;;;4.15;3.63;;;11.50;97.20;;;;;;1688041;29;20213;-75
2022/04/19 07:11:25;;;;;;;3.97;3.65;;;11.60;97.20;;;;;;1688512;29;20232;-75
2022/04/19 07:12:18;;;;;;;4.30;3.90;;;11.60;97.20;;;;;;1687669;29;20208;-76
2022/04/19 07:13:09;;;;;;;4.50;3.92;;;11.70;97.20;;;;;;1687381;29;20657;-75
2022/04/19 07:14:00;;;;;;;4.28;3.88;;;11.70;97.20;;;;;;1687578;29;20212;-75
2022/04/19 07:14:52;;;;;;;4.67;3.90;;;11.80;97.20;;;;;;1687219;29;20209;-76
2022/04/19 07:15:43;;;;;;;4.07;3.72;;;11.80;97.20;;;;;;1687518;29;20240;-75
2022/04/19 07:16:34;;;;;;;4.40;4.00;;;11.90;97.20;;;;;;1687540;29;20224;-76
2022/04/19 07:17:25;;;;;;;3.50;3.20;;;11.90;97.20;;;;;;1687788;29;20243;-78
2022/04/19 07:18:17;;;;;;;3.70;3.30;;;11.90;97.20;;;;;;1687289;29;20204;-76
2022/04/19 07:19:07;;;;;;;4.57;3.92;;;12.00;97.20;;;;;;1687502;29;20922;-76
2022/04/19 07:27:11;;;;;;;4.00;3.45;;;12.40;97.20;;;;;;1680677;29;20277;-76
2022/04/19 07:28:02;;;;;;;5.00;3.88;;;12.50;97.20;;;;;;1680755;29;20905;-76
2022/04/19 07:28:54;;;;;;;4.78;3.80;;;12.60;97.20;;;;;;1681708;29;20205;-76
2022/04/19 07:29:45;;;;;;;5.28;3.83;;;12.60;97.20;;;;;;1682020;29;20258;-75
2022/04/19 07:30:36;;;;;;;4.23;3.83;;;12.70;97.20;;;;;;1681997;29;20213;-76
2022/04/19 07:31:27;;;;;;;3.97;3.53;;;12.80;97.20;;;;;;1681338;29;20673;-76
2022/04/19 07:32:19;;;;;;;4.40;4.00;;;12.80;97.20;;;;;;1693134;29;20568;-76
2022/04/19 07:33:10;;;;;;;5.35;3.47;;;12.90;97.20;;;;;;1695352;29;20211;-76
2022/04/19 07:34:02;;;;;;;3.88;3.58;;;13.00;97.20;;;;;;1695322;29;20261;-74
2022/04/19 07:34:53;;;;;;;5.32;4.03;;;13.10;97.20;;;;;;1690746;29;20205;-75
2022/04/19 07:35:46;;;;;;;4.90;3.57;;;13.10;97.20;;;;;;1688981;29;20224;-76
2022/04/19 07:36:39;;;;;;;3.90;3.50;;;13.20;97.20;;;;;;1689015;29;20484;-76
2022/04/19 07:37:31;;;;;;;4.55;4.15;;;13.30;97.20;;;;;;1689102;29;20212;-76
2022/04/19 07:38:22;;;;;;;4.07;3.67;;;13.30;97.20;;;;;;1689191;29;20298;-76
2022/04/19 07:39:14;;;;;;;5.65;4.32;;;13.40;97.20;;;;;;1689937;29;20193;-76
2022/04/19 07:40:06;;;;;;;4.85;4.35;;;13.50;97.20;;;;;;1690236;29;20205;-76
2022/04/19 07:40:58;;;;;;;5.13;3.90;;;13.50;97.20;;;;;;1690034;29;20209;-77
2022/04/19 07:41:49;;;;;;;6.07;3.85;;;13.60;97.20;;;;;;1690655;29;20691;-77
2022/04/19 07:42:40;;;;;;;4.63;4.20;;;13.60;97.20;;;;;;1690155;29;20656;-76
2022/04/19 07:43:31;;;;;;;4.07;3.65;;;13.60;97.20;;;;;;1689668;29;20464;-76
2022/04/19 07:44:23;;;;;;;3.87;3.47;;;13.70;97.20;;;;;;1690459;29;20209;-77
2022/04/19 07:45:14;;;;;;;5.65;3.70;;;13.70;97.20;;;;;;1689885;29;20287;-76
2022/04/19 07:46:06;;;;;;;4.18;3.50;;;13.80;97.20;;;;;;1690363;29;20212;-77
2022/04/19 07:46:56;;;;;;;6.40;3.35;;;13.90;97.20;;;;;;1690130;29;20211;-77
2022/04/19 07:47:48;;;;;;;4.37;3.97;;;14.00;97.20;;;;;;1690209;29;20210;-75
2022/04/19 07:48:39;;;;;;;4.20;3.70;;;14.00;97.20;;;;;;1689044;29;20208;-77
2022/04/19 07:49:31;;;;;;;4.20;3.90;;;14.00;97.20;;;;;;1690548;29;20208;-75
2022/04/19 07:50:21;;;;;;;6.70;4.30;;;14.10;97.20;;;;;;1689769;29;20231;-76
2022/04/19 07:51:15;;;;;;;4.17;3.77;;;14.10;97.20;;;;;;1689461;29;20201;-76
2022/04/19 07:52:06;;;;;;;4.65;3.88;;;14.10;97.20;;;;;;1689893;29;20668;-76
2022/04/19 07:52:58;;;;;;;4.43;3.85;;;14.20;97.20;;;;;;1689367;29;20682;-76
2022/04/19 07:53:49;;;;;;;5.80;4.10;;;14.20;97.20;;;;;;1689420;29;20212;-77
2022/04/19 07:54:41;;;;;;;15.47;14.10;;;14.20;96.90;;;;;;1689075;29;20205;-76
2022/04/19 07:55:31;;;;;;;7.03;6.32;;;14.30;97.00;;;;;;1688764;29;20263;-76
2022/04/19 07:56:23;;;;;;;6.83;6.10;;;14.30;97.20;;;;;;1688898;29;20201;-76
2022/04/19 07:57:18;;;;;;;8.30;7.35;;;14.40;97.20;;;;;;1688683;29;20520;-75
2022/04/19 07:58:09;;;;;;;9.23;7.60;;;14.40;97.20;;;;;;1688631;29;20684;-76
2022/04/19 07:59:00;;;;;;;7.22;6.35;;;14.50;97.10;;;;;;1688855;29;20216;-76
2022/04/19 07:59:54;;;;;;;6.17;5.10;;;14.50;97.00;;;;;;1688889;29;20210;-76
2022/04/19 08:00:44;;;;;;;11.38;4.38;;;14.60;97.20;;;;;;1689181;29;20444;-76
2022/04/19 08:01:36;;;;;;;5.47;3.77;;;14.70;97.20;;;;;;1689185;29;20201;-76
2022/04/19 08:02:28;;;;;;;4.97;3.90;;;14.80;97.20;;;;;;1688878;29;20208;-76
2022/04/19 08:03:20;;;;;;;4.80;4.25;;;14.90;97.20;;;;;;1689972;29;20200;-75
2022/04/19 08:04:11;;;;;;;4.60;4.20;;;15.00;97.20;;;;;;1689399;29;20208;-76
2022/04/19 08:05:03;;;;;;;4.57;3.60;;;15.10;97.20;;;;;;1689275;29;20213;-75
2022/04/19 08:05:54;;;;;;;4.90;3.95;;;15.20;97.20;;;;;;1689000;29;20510;-76
2022/04/19 08:06:47;;;;;;;4.33;3.97;;;15.20;96.10;;;;;;1688999;29;20215;-75
2022/04/19 08:07:37;;;;;;;5.40;4.28;;;15.30;94.30;;;;;;1688935;29;20265;-76
2022/04/19 08:08:29;;;;;;;4.80;4.23;;;15.30;93.90;;;;;;1688620;29;20208;-76
2022/04/19 08:09:20;;;;;;;4.47;4.07;;;15.40;93.80;;;;;;1688963;29;20208;-76
2022/04/19 08:10:12;;;;;;;4.73;3.80;;;15.40;93.20;;;;;;1690104;29;20284;-76
2022/04/19 08:11:03;;;;;;;5.38;4.35;;;15.50;93.10;;;;;;1690074;29;20205;-76
2022/04/19 08:11:55;;;;;;;7.50;5.40;;;15.50;93.00;;;;;;1690318;29;20205;-76
2022/04/19 08:12:46;;;;;;;4.30;3.90;;;15.60;93.40;;;;;;1689818;29;20457;-76
2022/04/19 08:13:38;;;;;;;4.60;4.20;;;15.60;94.10;;;;;;1689830;29;20201;-76
2022/04/19 08:14:28;;;;;;;6.85;4.60;;;15.70;94.00;;;;;;1689341;29;20236;-75
2022/04/19 08:15:20;;;;;;;5.73;4.10;;;15.80;93.60;;;;;;1689261;29;20246;-76
2022/04/19 08:16:12;;;;;;;4.82;4.30;;;15.90;93.20;;;;;;1689243;29;20215;-76
2022/04/19 08:17:03;;;;;;;6.57;5.03;;;15.90;92.80;;;;;;1689311;29;20320;-76
2022/04/19 08:17:55;;;;;;;6.20;4.93;;;16.00;92.30;;;;;;1688767;29;20268;-76
2022/04/19 08:18:46;;;;;;;4.97;4.30;;;16.10;92.30;;;;;;1688420;29;20212;-76
2022/04/19 08:19:37;;;;;;;4.70;4.20;;;16.10;92.40;;;;;;1689117;29;20207;-76
2022/04/19 08:20:28;;;;;;;7.07;4.47;;;16.20;92.60;;;;;;1689247;29;20634;-76
2022/04/19 08:21:20;;;;;;;5.53;4.37;;;16.30;92.50;;;;;;1689358;29;20565;-76
2022/04/19 08:22:12;;;;;;;4.07;3.67;;;16.40;92.40;;;;;;1688933;29;20463;-76
2022/04/19 08:23:04;;;;;;;4.47;4.07;;;16.50;92.60;;;;;;1689358;29;20213;-77
2022/04/19 08:23:55;;;;;;;7.20;4.85;;;16.60;92.80;;;;;;1689650;29;20205;-76
2022/04/19 08:24:47;;;;;;;6.37;4.67;;;16.70;92.90;;;;;;1689221;29;20212;-77
2022/04/19 08:25:39;;;;;;;4.38;3.80;;;16.80;92.40;;;;;;1688841;29;20717;-76
2022/04/19 08:26:30;;;;;;;5.22;4.72;;;16.90;92.10;;;;;;1688763;29;20299;-77
2022/04/19 08:27:21;;;;;;;4.95;4.07;;;17.00;92.00;;;;;;1690244;29;20197;-77
2022/04/19 08:28:13;;;;;;;5.00;4.43;;;17.10;92.10;;;;;;1689114;29;20679;-77
2022/04/19 08:29:05;;;;;;;5.20;4.68;;;17.10;92.20;;;;;;1689818;29;20228;-77
2022/04/19 08:29:56;;;;;;;4.95;4.45;;;17.10;91.20;;;;;;1689589;29;20703;-77
2022/04/19 08:30:47;;;;;;;5.03;4.50;;;17.20;91.50;;;;;;1689694;29;20260;-76
2022/04/19 08:31:39;;;;;;;5.93;4.77;;;17.20;91.40;;;;;;1690630;29;20192;-76
2022/04/19 08:32:29;;;;;;;5.45;4.43;;;17.20;90.70;;;;;;1690624;29;20212;-77
2022/04/19 08:33:21;;;;;;;5.10;4.60;;;17.30;90.90;;;;;;1690152;29;20209;-76
2022/04/19 08:34:12;;;;;;;5.05;4.55;;;17.40;91.50;;;;;;1689860;29;20204;-76
2022/04/19 08:35:06;;;;;;;5.57;4.32;;;17.40;91.40;;;;;;1689314;29;20201;-76
2022/04/19 08:35:58;;;;;;;6.10;4.63;;;17.50;90.90;;;;;;1689383;29;20209;-76
2022/04/19 08:36:50;;;;;;;6.13;5.53;;;17.60;90.20;;;;;;1690226;29;20241;-77
2022/04/19 08:37:42;;;;;;;6.03;5.03;;;17.60;90.10;;;;;;1690473;29;20217;-76
2022/04/19 08:38:35;;;;;;;4.53;4.13;;;17.70;89.40;;;;;;1690246;29;20223;-76
2022/04/19 08:39:25;;;;;;;5.30;4.75;;;17.80;89.20;;;;;;1692608;29;20219;-77
2022/04/19 08:40:18;;;;;;;5.80;4.37;;;17.90;89.70;;;;;;1690427;29;20205;-77
2022/04/19 08:41:09;;;;;;;5.70;5.00;;;18.00;89.70;;;;;;1690061;29;20240;-76
2022/04/19 08:42:01;;;;;;;5.20;4.57;;;18.10;89.90;;;;;;1689720;29;20284;-76
2022/04/19 08:42:55;;;;;;;5.53;4.40;;;18.20;89.70;;;;;;1689853;29;20204;-76
2022/04/19 08:43:47;;;;;;;7.82;5.65;;;18.30;89.40;;;;;;1690090;29;20208;-77
2022/04/19 08:44:37;;;;;;;6.28;5.30;;;18.40;89.60;;;;;;1690884;29;20275;-76
2022/04/19 08:45:29;;;;;;;7.57;5.20;;;18.40;89.50;;;;;;1690929;29;20212;-77
2022/04/19 08:46:20;;;;;;;6.70;5.32;;;18.50;88.00;;;;;;1690831;29;20201;-76
2022/04/19 08:47:13;;;;;;;8.00;4.80;;;18.60;87.60;;;;;;1694098;29;20291;-75
2022/04/19 08:48:09;;;;;;;6.20;4.90;;;18.70;86.30;;;;;;1691495;29;20567;-76
2022/04/19 08:49:04;;;;;;;5.60;5.10;;;18.70;85.60;;;;;;1690443;29;20201;-76
2022/04/19 08:49:55;;;;;;;6.63;5.40;;;18.80;85.50;;;;;;1691132;29;20212;-76
2022/04/19 08:50:49;;;;;;;5.45;4.95;;;18.80;85.30;;;;;;1694134;29;20603;-76
2022/04/19 08:51:40;;;;;;;6.65;5.90;;;18.80;85.40;;;;;;1693414;29;20243;-76
2022/04/19 08:52:33;;;;;;;7.20;5.13;;;18.90;85.50;;;;;;1693219;29;20205;-77
2022/04/19 08:58:05;;;;;;;5.70;5.15;;;19.30;85.80;;;;;;1690810;29;20207;-77
2022/04/19 08:58:56;;;;;;;5.28;4.78;;;19.50;85.10;;;;;;1693702;29;20243;-76
2022/04/19 08:59:47;;;;;;;5.50;4.90;;;19.50;84.60;;;;;;1693123;29;20208;-79
2022/04/19 09:00:38;;;;;;;5.65;4.93;;;19.60;83.90;;;;;;1692252;29;20444;-77
2022/04/19 09:01:30;;;;;;;4.40;4.00;;;19.70;83.70;;;;;;1692549;29;20204;-77
2022/04/19 09:02:23;;;;;;;5.55;5.05;;;19.70;83.70;;;;;;1694089;29;20207;-77
2022/04/19 09:03:15;;;;;;;4.80;4.40;;;19.80;84.00;;;;;;1691674;29;20684;-75
2022/04/19 09:04:06;;;;;;;5.70;5.10;;;19.90;83.70;;;;;;1690847;29;20204;-77
2022/04/19 09:05:13;;;;;;;5.83;5.23;;;19.90;83.70;;;;;;1691826;29;20759;-76
2022/04/19 09:06:04;;;;;;;5.85;4.57;;;20.00;83.20;;;;;;1691503;29;20487;-77
2022/04/19 09:06:57;;;;;;;4.33;3.80;;;20.10;82.80;;;;;;1697663;29;20664;-77
2022/04/19 09:07:50;;;;;;;5.15;3.95;;;20.10;82.40;;;;;;1697654;29;20455;-76
2022/04/19 09:09:07;;;;;;;5.13;4.63;;;20.10;82.10;;;;;;1696971;29;20634;-77
2022/04/19 09:10:01;;;;;;;5.60;4.50;;;20.20;82.10;;;;;;1693951;29;20207;-76
2022/04/19 09:11:05;;;;;;;5.30;4.53;;;20.30;81.80;;;;;;1694023;29;20193;-77
2022/04/19 09:12:06;;;;;;;4.55;4.15;;;20.30;81.90;;;;;;1691086;29;20200;-78
2022/04/19 09:13:00;;;;;;;4.57;4.13;;;20.40;81.50;;;;;;1691711;29;20256;-76
2022/04/19 09:14:05;;;;;;;4.75;4.10;;;20.50;81.40;;;;;;1693954;29;20271;-76
2022/04/19 09:14:58;;;;;;;4.80;3.85;;;20.50;81.20;;;;;;1694011;29;20200;-78
2022/04/19 09:15:50;;;;;;;5.05;4.28;;;20.70;81.00;;;;;;1694765;29;20240;-76
2022/04/19 09:16:41;;;;;;;4.85;4.10;;;20.70;81.00;;;;;;1694400;29;20204;-75
2022/04/19 09:17:34;;;;;;;5.67;4.13;;;20.80;80.40;;;;;;1694689;29;20261;-76
2022/04/19 09:18:29;;;;;;;4.20;3.80;;;20.80;79.80;;;;;;1693468;29;20212;-76
2022/04/19 09:19:27;;;;;;;4.25;3.70;;;20.80;79.10;;;;;;1694017;29;20201;-77
2022/04/19 09:20:20;;;;;;;5.70;3.85;;;20.90;79.00;;;;;;1695516;29;20231;-78
2022/04/19 09:21:12;;;;;;;4.55;4.15;;;21.00;78.90;;;;;;1694621;29;20199;-76
2022/04/19 09:22:03;;;;;;;4.00;3.60;;;21.10;79.00;;;;;;1695474;29;20298;-77
2022/04/19 09:23:05;;;;;;;5.70;3.30;;;21.20;78.20;;;;;;1695628;29;20201;-78
2022/04/19 09:23:58;;;;;;;5.22;3.45;;;21.20;77.20;;;;;;1693920;29;20209;-77
2022/04/19 09:24:49;;;;;;;4.47;3.88;;;21.30;77.20;;;;;;1695148;29;20663;-76
2022/04/19 09:25:41;;;;;;;4.95;4.30;;;21.30;77.40;;;;;;1696389;29;20212;-78
2022/04/19 09:26:42;;;;;;;3.42;3.13;;;21.40;77.70;;;;;;1695331;29;20584;-78
2022/04/19 09:27:33;;;;;;;3.58;3.28;;;21.50;77.00;;;;;;1694734;29;20544;-76
2022/04/19 09:28:26;;;;;;;3.10;2.80;;;21.60;76.50;;;;;;1698242;29;20260;-78
2022/04/19 09:29:18;;;;;;;3.60;3.30;;;21.70;76.40;;;;;;1695854;29;20227;-77
2022/04/19 09:30:20;;;;;;;4.72;3.33;;;21.70;76.90;;;;;;1693751;29;20239;-76
2022/04/19 09:31:12;;;;;;;5.22;3.47;;;21.80;77.20;;;;;;1695924;29;20204;-76
2022/04/19 09:32:12;;;;;;;4.43;4.03;;;21.80;77.20;;;;;;1696037;29;20216;-78
2022/04/19 09:33:06;;;;;;;3.40;2.83;;;21.90;76.90;;;;;;1695824;29;20479;-78
2022/04/19 09:34:00;;;;;;;4.10;2.90;;;21.90;76.50;;;;;;1695685;29;20207;-76
2022/04/19 09:34:50;;;;;;;5.30;2.75;;;22.00;76.20;;;;;;1697336;29;20218;-76
2022/04/19 09:35:44;;;;;;;3.03;2.73;;;22.00;76.50;;;;;;1695374;29;20299;-76
2022/04/19 09:36:35;;;;;;;4.25;3.08;;;22.10;76.20;;;;;;1696310;29;20205;-78
2022/04/19 09:37:27;;;;;;;3.10;2.80;;;22.20;75.90;;;;;;1697016;29;20240;-78
2022/04/19 09:38:19;;;;;;;3.45;2.95;;;22.30;75.40;;;;;;1696486;29;20204;-77
2022/04/19 09:40:33;;;;;;;3.13;2.42;;;22.30;75.10;;;;;;1787956;27;20769;-79
2022/04/19 09:41:30;;;;;;;4.60;3.25;;;22.50;74.30;;;;;;1783589;27;20192;-79
2022/04/19 09:42:26;;;;;;;3.35;3.05;;;22.50;74.60;;;;;;1778097;27;20586;-78
2022/04/19 09:43:21;;;;;;;5.07;3.03;;;22.60;74.70;;;;;;1776325;27;20184;-79
2022/04/19 09:44:13;;;;;;;4.68;3.22;;;22.70;74.80;;;;;;1774495;27;20184;-78
2022/04/19 09:45:05;;;;;;;4.75;3.90;;;22.70;74.90;;;;;;1772082;27;20261;-80
2022/04/19 09:45:59;;;;;;;4.05;3.60;;;22.80;74.80;;;;;;1764998;28;20208;-79
2022/04/19 09:47:01;;;;;;;4.20;3.50;;;22.80;74.30;;;;;;1766496;28;20202;-78
2022/04/19 09:47:54;;;;;;;4.15;3.72;;;22.90;73.50;;;;;;1764332;28;20671;-79
2022/04/19 09:48:48;;;;;;;4.28;3.25;;;22.90;73.80;;;;;;1766372;28;20205;-78
2022/04/19 09:49:44;;;;;;;4.38;3.70;;;23.00;74.10;;;;;;1766088;28;20237;-78